Terminal Aerodrome Forecast
Issued by NWS Twin Cities, MN

Home | Current Version | Previous Version | Text Only | Print | Product List | Glossary Off
Versions: 1 2 3 4 5 6 7 8 9 10 11 12 13 14 15 16 17 18 19 20 21 22 23 24 25 26

000
FTUS43 KMPX 011458 AAA
TAFMSP
TAF AMD
KMSP 011458Z 0115/0218 15016G22KT P6SM FEW150
     FM011800 18021G40KT P6SM SCT120
     FM020000 19017G27KT P6SM VCTS BKN060CB OVC120
      TEMPO 0201/0204 3SM TSRA OVC035CB
     FM020500 28010KT P6SM SCT050 BKN150=

USA.gov is the U.S. government's official web portal to all federal, state and local government web resources and services.